Hg 306 Tobis — OUPS — position and weather

sailwx.info

Track history (hours):
 
Tides and Currents Weather Stations Pressure Air Temp Water Temp Dewpoint Dewpoint Depression Visibility Wind Speed Wind Dir Waves Ship Positions

Hg 306 Tobis

Last reported at 2017-Jan-16 15:30 UTC. Time now 2017-Jan-19 19:18 UTC.
Position N 59°04' E 004°57'.

Length 40 m; draft 6.4 m.

Type: Fishing. MMSI: 219013001.

Date/timePositionNaut miles runAvg speedWind from/ knotsBaromVisibWave heightAir tempDewpointWater temp
2017-Jan-16 15:30N 59°04' E 004°57'9 9.9
2017-Jan-16 14:33N 58°56' E 005°05'1010.0
2017-Jan-16 13:33N 58°47' E 005°14'10 9.9
2017-Jan-16 12:33N 58°38' E 005°22'2010.0
2017-Jan-16 10:33N 58°21' E 005°43'1210.4
2017-Jan-16 09:25N 58°13' E 006°00'1011.1
2017-Jan-16 08:33N 58°07' E 006°14'1110.9
2017-Jan-16 07:32N 58°01' E 006°31'1110.8
2017-Jan-16 06:33N 57°55' E 006°48'  
Track history (hours):
 
Tides and Currents Weather Stations Pressure Air Temp Water Temp Dewpoint Dewpoint Depression Visibility Wind Speed Wind Dir Waves Ship Positions

Hg 306 Tobis

Last reported at 2017-Jan-16 15:30 UTC. Time now 2017-Jan-19 19:18 UTC.
Position N 59°04' E 004°57'.

Length 40 m; draft 6.4 m.

Type: Fishing. MMSI: 219013001.

Date/timePositionNaut miles runAvg speedWind from/ knotsBaromVisibWave heightAir tempDewpointWater temp
2017-Jan-16 15:30N 59°04' E 004°57'9 9.9
2017-Jan-16 14:33N 58°56' E 005°05'1010.0
2017-Jan-16 13:33N 58°47' E 005°14'10 9.9
2017-Jan-16 12:33N 58°38' E 005°22'2010.0
2017-Jan-16 10:33N 58°21' E 005°43'1210.4
2017-Jan-16 09:25N 58°13' E 006°00'1011.1
2017-Jan-16 08:33N 58°07' E 006°14'1110.9
2017-Jan-16 07:32N 58°01' E 006°31'1110.8
2017-Jan-16 06:33N 57°55' E 006°48'  

Dump ship's entire track history